Date,TemperatureHighF,TemperatureAvgF,TemperatureLowF,DewpointHighF,DewpointAvgF,DewpointLowF,HumidityHigh,HumidityAvg,HumidityLow,PressureMaxIn,PressureMinIn,WindSpeedMaxMPH,WindSpeedAvgMPH,GustSpeedMaxMPH,PrecipitationSumIn
2013-1-1,16.0,7.9,-2.0,7.9,-1.2,-10.0,75,66,44,30.16,29.96,10,3,19,0.00
2013-1-2,22.0,17.7,15.0,13.0,10.7,7.9,80,74,67,29.99,29.91,5,2,9,0.00
2013-1-3,25.0,19.5,15.0,17.0,9.9,3.6,80,66,48,30.10,29.82,12,4,22,0.00
2013-1-4,37.0,22.4,14.0,19.0,12.4,8.0,80,66,45,30.08,29.84,9,3,19,0.00
2013-1-5,28.0,17.3,5.0,20.0,10.3,-0.6,82,74,59,30.08,29.81,6,1,10,0.00
2013-1-6,29.0,23.1,15.0,20.0,13.8,6.0,75,67,53,30.12,29.88,7,1,11,0.00
2013-1-7,40.0,29.5,15.0,24.0,17.8,4.3,71,62,50,29.98,29.70,11,5,19,0.00
2013-1-8,36.0,26.2,14.0,28.0,19.7,9.3,87,77,66,29.96,29.65,13,2,19,0.00
2013-1-9,36.0,31.3,21.0,27.0,20.7,14.0,75,65,52,30.29,29.69,12,4,27,0.00
2013-1-10,46.0,31.6,14.0,31.0,15.7,9.3,90,57,27,30.29,29.73,9,1,17,0.37
2013-1-11,40.0,35.3,32.0,39.0,33.3,30.0,95,93,88,29.73,29.32,2,0,6,0.01
2013-1-12,42.0,26.2,14.0,40.0,18.9,4.1,95,74,60,29.96,29.28,17,5,29,0.00
2013-1-13,14.0,10.3,7.0,6.0,2.3,-0.7,76,69,59,30.11,29.93,8,2,11,0.00
2013-1-14,13.0,7.2,3.0,2.5,-1.3,-4.6,73,68,54,30.29,30.11,7,2,15,0.00
2013-1-15,28.0,18.5,7.0,15.0,6.9,-0.4,73,61,43,30.26,29.69,11,4,20,0.00
2013-1-16,29.0,22.8,8.0,24.0,11.9,-6.3,87,64,45,30.14,29.47,11,5,21,0.00
2013-1-17,13.0,6.2,1.0,-0.8,-5.3,-8.6,66,59,47,30.31,30.15,7,2,12,0.00
2013-1-18,19.0,13.9,1.0,15.0,8.0,-7.7,85,77,64,30.27,29.71,4,1,6,0.19
2013-1-19,33.0,19.3,4.0,27.0,13.2,-4.2,85,77,60,30.02,29.49,14,4,25,0.00
2013-1-20,5.0,1.3,-2.0,-3.6,-8.7,-12.0,70,62,52,30.24,30.01,9,3,16,0.00
2013-1-21,-1.0,-7.4,-10.0,-9.0,-16.7,-20.0,68,63,52,30.18,30.11,8,3,15,0.00
2013-1-22,2.0,-7.2,-17.0,-14.0,-18.9,-27.0,66,56,45,30.28,30.17,7,2,13,0.00
2013-1-23,10.0,-0.3,-10.0,1.2,-8.8,-20.0,74,67,57,30.52,30.03,13,3,23,0.00
2013-1-24,7.0,-1.4,-15.0,0.8,-9.9,-24.0,76,67,59,30.61,30.16,3,0,5,0.06
2013-1-25,21.0,13.2,7.0,9.5,4.8,-0.1,76,69,57,30.19,29.87,8,2,13,0.03
2013-1-26,22.0,14.1,5.0,11.0,4.6,-2.3,73,65,54,30.31,30.14,5,1,8,0.00
2013-1-27,30.0,22.0,11.0,27.0,15.5,4.1,90,76,64,30.15,29.81,2,0,4,0.17
2013-1-28,37.0,28.6,24.0,29.0,24.7,21.0,90,86,70,29.87,29.66,3,0,4,0.05
2013-1-29,35.0,31.2,26.0,32.0,26.7,19.0,93,84,68,29.68,29.47,8,2,13,0.00
2013-1-30,29.0,19.1,11.0,21.0,11.2,3.1,76,71,63,29.68,29.54,11,5,17,0.00
2013-1-31,11.0,7.8,2.0,4.4,-0.9,-7.7,76,67,56,30.07,29.59,9,3,14,0.00
2013-2-1,3.0,-4.2,-15.0,-7.4,-18.0,-26.0,64,51,37,30.19,30.07,7,2,12,0.00
2013-2-2,15.0,4.9,-6.0,-3.2,-8.4,-14.0,70,54,38,30.11,29.91,6,1,9,0.00
2013-2-3,12.0,6.5,1.0,0.6,-5.2,-11.0,74,58,45,29.98,29.85,8,2,17,0.00
2013-2-4,17.0,3.5,-10.0,-2.2,-10.9,-19.0,73,52,29,29.99,29.74,5,1,10,0.00
2013-2-5,21.0,13.2,2.0,11.0,4.5,-5.5,80,68,51,30.03,29.60,6,1,10,0.15
2013-2-6,22.0,14.4,2.0,19.0,8.0,-5.8,87,76,55,30.09,30.01,5,1,9,0.06
2013-2-7,27.0,23.8,20.0,21.0,18.6,16.0,87,81,69,30.30,29.60,10,4,17,0.00
2013-2-8,22.0,15.0,4.0,15.0,8.4,-2.1,84,75,64,30.40,30.27,6,2,12,0.00
2013-2-9,28.0,17.3,1.0,20.0,11.1,-5.6,85,76,66,30.27,30.01,8,1,15,0.00
2013-2-10,31.0,27.3,23.0,29.0,23.7,18.0,94,87,76,30.01,29.31,10,3,17,0.17
2013-2-11,31.0,26.5,22.0,29.0,22.5,16.0,94,86,75,29.92,29.30,8,3,15,0.00
2013-2-12,32.0,24.0,16.0,23.0,17.7,11.0,84,77,67,29.94,29.69,7,2,16,0.00
2013-2-13,43.0,29.9,22.0,27.0,21.8,16.0,85,72,50,29.70,29.58,8,2,12,0.00
2013-2-14,30.0,22.3,13.0,22.0,14.0,2.4,88,70,53,30.09,29.65,9,2,14,0.00
2013-2-15,15.0,12.3,8.0,6.3,1.0,-3.4,76,60,44,30.21,30.08,8,2,13,0.00
2013-2-16,18.0,6.6,-7.0,2.0,-3.2,-15.0,76,64,42,30.19,30.14,5,1,8,0.00
2013-2-17,30.0,11.0,-12.0,12.0,-1.9,-21.0,75,57,40,30.14,29.74,8,2,13,0.00
2013-2-18,34.0,26.8,19.0,24.0,18.6,11.0,86,71,58,29.74,29.48,11,2,16,0.00
2013-2-19,19.0,8.3,2.0,12.0,-1.0,-7.4,75,65,56,30.26,29.63,11,6,18,0.00
2013-2-20,18.0,9.0,-2.0,5.3,-0.0,-10.0,74,66,54,30.47,30.26,11,3,16,0.00
2013-2-21,24.0,14.1,-3.0,17.0,7.2,-11.0,82,74,63,30.48,30.18,10,2,17,0.00
2013-2-22,28.0,24.5,21.0,26.0,21.0,16.0,91,87,79,30.18,29.80,8,2,12,0.14
2013-2-23,32.0,27.6,23.0,27.0,24.6,21.0,92,88,78,29.89,29.76,5,1,7,0.02
2013-2-24,38.0,29.1,20.0,29.0,24.0,16.0,92,82,60,30.06,29.89,3,0,5,0.00
2013-2-25,40.0,24.7,11.0,26.0,17.8,6.3,88,76,56,30.10,30.03,6,1,9,0.00
2013-2-26,36.0,23.6,9.0,29.0,18.8,3.8,90,82,71,30.08,29.93,8,2,13,0.00
2013-2-27,31.0,30.5,28.0,26.0,24.8,22.0,85,79,70,30.02,29.88,10,5,19,0.00
2013-2-28,28.0,25.3,23.0,22.0,18.1,13.0,84,74,62,30.27,30.01,9,5,16,0.00
2013-3-1,24.0,19.8,7.0,17.0,13.0,0.9,85,75,66,30.38,30.27,10,4,17,0.00
2013-3-2,26.0,12.0,-1.0,9.9,2.2,-7.6,84,66,40,30.34,30.18,5,1,9,0.00
2013-3-3,26.0,12.0,-6.0,13.0,2.6,-14.0,81,66,37,30.19,30.08,6,1,11,0.00
2013-3-4,30.0,22.4,10.0,22.0,13.6,4.2,80,69,47,30.12,30.05,9,3,14,0.00
2013-3-5,29.0,24.9,21.0,23.0,16.5,10.0,87,70,56,30.26,30.04,10,4,19,0.00
2013-3-6,30.0,23.4,18.0,16.0,13.5,8.9,82,66,47,30.34,30.24,7,1,12,0.00
2013-3-7,28.0,19.1,8.0,17.0,11.1,2.3,82,71,54,30.40,30.32,6,1,10,0.00
2013-3-8,47.0,26.4,9.0,27.0,17.9,3.8,87,72,45,30.36,30.15,9,1,13,0.00
2013-3-9,36.0,30.6,24.0,34.0,28.3,20.0,94,91,85,30.15,29.75,3,0,6,0.15
2013-3-10,35.0,32.6,30.0,32.0,27.1,21.0,94,80,70,29.98,29.76,9,4,17,0.00
2013-3-11,30.0,25.5,22.0,24.0,21.0,18.0,87,82,74,29.91,29.73,11,4,17,0.01
2013-3-12,24.0,22.0,19.0,19.0,15.4,8.1,87,76,62,30.08,29.74,9,3,15,0.00
2013-3-13,35.0,22.8,14.0,8.1,4.0,-1.5,62,46,25,30.28,30.08,6,1,8,0.00
2013-3-14,40.0,27.5,7.0,27.0,15.0,0.2,76,60,36,30.22,29.95,9,2,16,0.00
2013-3-15,35.0,25.2,17.0,27.0,16.8,11.0,85,71,55,30.03,29.93,9,4,18,0.01
2013-3-16,25.0,17.9,9.0,15.0,8.0,-6.3,85,66,44,30.22,29.98,10,3,16,0.04
2013-3-17,24.0,12.3,-3.0,12.0,0.3,-11.0,72,59,43,30.27,29.95,8,2,10,0.00
2013-3-18,35.0,25.9,19.0,28.0,17.9,7.6,84,72,51,29.95,29.49,7,3,15,0.07
2013-3-19,27.0,19.7,14.0,17.0,7.4,0.7,84,60,38,29.99,29.52,12,4,23,0.00
2013-3-20,21.0,15.3,9.0,8.2,4.1,1.2,78,61,47,30.08,29.98,8,3,15,0.00
2013-3-21,30.0,19.4,10.0,11.0,8.0,2.8,80,62,40,30.06,30.01,6,1,9,0.00
2013-3-22,32.0,19.9,5.0,24.0,12.3,-1.2,81,72,59,30.09,30.02,6,1,9,0.00
2013-3-23,36.0,25.7,12.0,23.0,17.0,6.8,84,70,52,30.17,30.09,6,1,10,0.00
2013-3-24,30.0,26.4,22.0,26.0,20.0,15.0,88,76,68,30.14,30.02,10,2,17,0.00
2013-3-25,34.0,26.7,17.0,24.0,19.6,12.0,87,75,58,30.17,30.00,8,2,14,0.00
2013-3-26,40.0,33.2,27.0,25.0,22.1,18.0,80,65,41,30.25,30.17,6,1,8,0.00
2013-3-27,43.0,35.0,24.0,24.0,16.7,12.0,75,49,30,30.30,30.25,7,1,10,0.00
2013-3-28,46.0,31.7,16.0,23.0,15.5,10.0,78,55,27,30.31,30.25,6,1,9,0.00
2013-3-29,57.0,38.5,20.0,28.0,20.2,13.0,77,52,25,30.27,30.07,5,1,9,0.00
2013-3-30,52.0,41.4,36.0,40.0,34.0,25.0,93,76,57,30.07,29.73,7,2,11,0.20
2013-3-31,38.0,33.4,25.0,29.0,18.6,5.5,74,55,36,29.99,29.66,13,5,22,0.00
2013-4-1,34.0,26.7,22.0,12.0,7.0,2.4,62,43,30,30.13,29.99,12,4,18,0.00
2013-4-2,36.0,27.8,19.0,15.0,9.3,3.5,68,47,26,30.31,30.13,8,2,14,0.00
2013-4-3,49.0,31.6,11.0,24.0,10.2,3.5,73,45,20,30.38,29.96,12,3,21,0.00
2013-4-4,46.0,40.8,33.0,30.0,22.4,14.0,64,48,33,30.13,29.90,13,4,24,0.00
2013-4-5,35.0,30.2,20.0,23.0,17.1,13.0,76,59,44,30.27,30.06,8,2,13,0.00
2013-4-6,37.0,32.6,29.0,33.0,29.6,22.0,94,89,69,30.07,29.59,4,1,7,0.39
2013-4-7,46.0,36.7,31.0,33.0,29.5,23.0,92,76,57,29.91,29.65,4,1,7,0.00
2013-4-8,35.0,33.4,32.0,34.0,31.2,26.0,95,92,77,30.04,29.79,4,1,7,0.22
2013-4-9,40.0,35.0,31.0,33.0,28.1,18.0,94,77,46,30.20,30.03,11,3,18,0.00
2013-4-10,37.0,33.3,28.0,27.0,23.2,16.0,86,67,45,30.23,30.08,10,4,18,0.00
2013-4-11,33.0,30.2,28.0,27.0,23.9,19.0,93,78,58,30.08,29.80,15,8,28,0.02
2013-4-12,31.0,28.5,25.0,29.0,26.5,23.0,94,93,91,29.81,29.72,12,6,22,0.07
2013-4-13,36.0,28.4,21.0,29.0,23.8,17.0,91,83,65,29.96,29.78,6,1,8,0.05
2013-4-14,40.0,28.5,13.0,31.0,22.8,8.8,95,80,55,29.99,29.66,13,3,20,0.06
2013-4-15,43.0,36.5,32.0,38.0,31.7,27.0,96,83,61,29.83,29.55,13,4,22,0.02
2013-4-16,46.0,38.2,29.0,31.0,26.5,22.0,83,64,42,30.36,29.83,7,2,13,0.00
2013-4-17,39.0,32.4,26.0,31.0,27.6,22.0,94,83,63,30.38,30.04,7,2,12,0.06
2013-4-18,32.0,31.7,30.0,31.0,30.3,28.0,95,95,94,30.04,29.38,13,5,24,0.30
2013-4-19,30.0,26.6,22.0,29.0,23.8,17.0,95,89,79,29.91,29.35,15,7,22,0.06
2013-4-20,35.0,23.5,12.0,27.0,17.0,7.8,85,76,62,30.34,29.92,5,1,9,0.00
2013-4-21,44.0,32.0,15.0,38.0,26.0,11.0,89,79,61,30.35,30.04,10,3,19,0.05
2013-4-22,46.0,38.0,32.0,37.0,29.0,21.0,94,73,40,30.22,30.05,8,2,13,0.08
2013-4-23,43.0,34.0,28.0,34.0,25.5,15.0,95,75,33,30.12,29.98,7,1,11,0.14
2013-4-24,52.0,36.0,26.0,31.0,22.2,14.0,92,60,28,29.98,29.85,9,2,17,0.07
2013-4-25,53.0,39.5,27.0,32.0,25.0,18.0,92,61,26,30.13,29.91,8,2,12,0.00
2013-4-26,69.0,47.4,36.0,39.0,33.1,24.0,87,60,33,30.12,29.99,8,2,12,0.05
2013-4-27,60.0,45.1,33.0,41.0,34.9,29.0,89,69,46,30.11,29.87,6,1,9,0.00
2013-4-28,76.0,59.7,40.0,53.0,44.5,34.0,91,62,32,29.88,29.67,10,3,17,0.01
2013-4-29,62.0,50.5,40.0,52.0,39.5,29.0,94,69,36,29.80,29.65,8,2,12,0.00
2013-4-30,82.0,57.3,38.0,59.0,40.4,26.0,91,59,25,29.87,29.40,13,3,23,0.00
2013-5-1,56.0,41.0,32.0,38.0,32.6,28.0,94,74,39,30.48,29.87,6,2,10,0.06
2013-5-2,33.0,31.3,30.0,31.0,29.3,28.0,95,94,93,30.53,30.44,6,2,11,0.49
2013-5-3,31.0,29.9,29.0,29.0,27.9,27.0,94,93,91,30.44,30.22,8,5,14,0.14
2013-5-4,36.0,33.6,31.0,33.0,31.3,29.0,95,92,85,30.23,30.19,8,3,12,0.14
2013-5-5,46.0,37.4,34.0,38.0,34.5,32.0,96,89,71,30.84,30.17,6,2,8,0.00
2013-5-6,57.0,43.9,32.0,44.0,37.0,30.0,95,78,59,30.80,30.68,5,1,7,0.00
2013-5-7,68.0,50.5,38.0,48.0,41.0,35.0,91,72,43,30.71,30.63,7,2,11,0.00
2013-5-8,70.0,54.1,39.0,52.0,43.7,36.0,93,70,47,30.71,30.62,7,1,10,0.00
2013-5-9,47.0,40.5,37.0,43.0,35.7,30.0,94,83,63,30.86,30.67,11,4,20,0.43
2013-5-10,45.0,39.5,36.0,32.0,29.5,25.0,84,68,50,30.84,30.51,9,4,18,0.00
2013-5-11,45.0,41.1,37.0,33.0,27.1,20.0,75,58,43,30.76,30.50,15,5,26,0.00
2013-5-12,41.0,38.1,37.0,25.0,22.2,18.0,62,53,42,30.80,30.76,11,5,17,0.00
2013-5-14,73.0,57.6,49.0,52.0,42.8,37.0,74,58,42,30.43,30.03,12,2,17,0.00
2013-5-15,79.0,65.8,53.0,48.0,42.0,35.0,70,45,21,30.47,30.20,10,3,19,0.00
2013-5-16,60.0,51.3,44.0,44.0,39.9,37.0,77,65,52,30.71,30.47,8,2,12,0.00
2013-5-17,53.0,46.4,42.0,42.0,38.4,36.0,83,74,62,30.78,30.69,7,3,12,0.00
2013-5-18,56.0,48.9,44.0,54.0,45.8,37.0,95,89,72,30.71,30.52,6,1,8,0.79
2013-5-19,50.0,47.2,45.0,49.0,45.1,41.0,96,92,79,30.54,30.38,9,3,15,0.22
2013-5-20,46.0,43.6,41.0,45.0,42.6,40.0,96,95,93,30.42,30.25,10,4,16,0.57
2013-5-21,44.0,41.3,40.0,43.0,40.3,39.0,96,96,95,30.46,30.30,9,4,15,0.67
2013-5-22,46.0,42.7,40.0,45.0,41.7,39.0,96,96,94,30.74,30.44,11,4,17,0.39
2013-5-23,51.0,43.5,37.0,41.0,33.6,29.0,95,69,51,31.01,30.74,12,4,21,0.00
2013-5-24,66.0,48.4,30.0,40.0,34.5,28.0,93,63,30,31.08,30.92,7,2,13,0.00
2013-5-25,64.0,50.8,44.0,45.0,40.0,35.0,83,67,46,30.98,30.91,7,2,12,0.00
2013-5-26,62.0,49.9,37.0,43.0,37.8,33.0,90,65,33,30.97,30.81,9,2,20,0.00
2013-5-27,56.0,48.2,38.0,44.0,39.5,34.0,91,73,50,30.81,30.56,8,1,13,0.00
2013-5-28,64.0,53.7,49.0,48.0,43.9,39.0,81,70,50,30.56,30.39,7,2,11,0.00
2013-5-29,83.0,62.7,51.0,60.0,52.5,42.0,86,70,42,30.47,30.37,6,2,11,0.00
2013-5-30,87.0,62.1,56.0,69.0,57.9,52.0,97,87,49,30.41,30.23,8,1,22,0.47
2013-5-31,87.0,69.8,57.0,66.0,58.1,49.0,97,69,36,30.29,30.18,13,2,21,0.24
2013-6-1,65.0,54.2,44.0,57.0,50.3,43.0,96,87,71,30.56,30.23,9,2,14,0.01
2013-6-2,62.0,51.3,45.0,44.0,39.0,36.0,95,65,41,30.70,30.56,8,3,14,0.00
2013-6-3,67.0,52.8,38.0,43.0,36.5,25.0,93,59,22,30.76,30.66,7,2,11,0.00
2013-6-4,62.0,52.6,47.0,48.0,42.8,37.0,89,70,40,30.82,30.75,5,1,9,0.00
2013-6-5,57.0,51.2,47.0,54.0,49.3,46.0,96,93,79,30.80,30.69,5,2,10,0.49
2013-6-6,50.0,48.2,47.0,49.0,45.7,42.0,97,91,82,30.72,30.68,5,2,10,0.05
2013-6-7,70.0,54.6,43.0,49.0,43.3,32.0,95,70,29,30.71,30.59,6,1,10,0.00
2013-6-8,67.0,57.8,50.0,53.0,47.3,42.0,94,70,44,30.64,30.59,7,1,10,0.01
2013-6-9,60.0,53.4,46.0,57.0,50.1,43.0,94,89,79,30.66,30.51,5,1,9,0.14
2013-6-10,74.0,60.1,52.0,62.0,55.1,50.0,95,84,59,30.51,30.46,6,1,9,0.00
2013-6-11,82.0,68.9,57.0,64.0,56.9,50.0,95,69,37,30.54,30.46,6,1,9,0.00
2013-6-12,83.0,65.5,51.0,58.0,52.8,47.0,94,67,33,30.55,30.46,5,1,10,0.00
2013-6-13,70.0,62.0,53.0,53.0,49.1,40.0,87,64,37,30.79,30.54,6,2,12,0.00
2013-6-14,71.0,57.5,47.0,55.0,48.2,43.0,92,72,46,30.80,29.90,6,1,10,0.00
2013-6-15,77.0,61.9,55.0,67.0,56.2,46.0,91,82,68,29.91,29.75,5,0,8,0.00
2013-6-16,82.0,66.4,58.0,60.0,53.8,47.0,94,68,30,29.88,29.74,19,2,32,0.08
2013-6-17,58.0,51.6,43.0,56.0,47.3,40.0,95,86,65,30.04,29.79,7,2,12,0.00
2013-6-18,71.0,54.3,38.0,46.0,40.4,35.0,95,64,29,30.12,30.01,5,1,9,0.00
2013-6-19,85.0,67.2,43.0,59.0,51.3,40.0,91,60,35,30.04,29.91,5,1,9,0.00
2013-6-20,73.0,61.1,57.0,65.0,58.4,54.0,97,91,72,30.02,29.94,5,1,10,0.61
2013-6-21,62.0,57.6,53.0,61.0,56.2,51.0,98,96,85,30.07,29.71,10,2,19,0.60
2013-6-22,57.0,53.8,51.0,56.0,52.5,50.0,97,96,90,30.03,29.87,5,1,8,0.06
2013-6-23,86.0,66.1,53.0,69.0,59.0,51.0,96,80,49,29.88,29.66,6,1,15,0.00
2013-6-24,88.0,75.7,62.0,65.0,61.6,55.0,95,66,36,29.85,29.75,4,1,11,0.00
2013-6-25,89.0,75.0,65.0,70.0,65.9,61.0,96,75,48,29.80,29.71,5,1,9,0.00
2013-6-26,78.0,67.7,62.0,70.0,64.7,60.0,98,90,73,29.73,29.62,13,1,18,0.00
2013-6-27,86.0,74.1,62.0,68.0,61.3,56.0,98,68,38,29.75,29.63,10,2,17,0.00
2013-6-28,71.0,64.5,60.0,64.0,59.3,55.0,91,84,63,29.76,29.63,7,2,12,0.00
2013-6-29,71.0,63.5,56.0,58.0,53.6,47.0,94,72,45,29.94,29.74,8,1,16,0.00
2013-6-30,85.0,68.0,48.0,57.0,50.7,43.0,94,60,27,30.06,29.94,5,1,9,0.00
2013-7-1,69.0,60.1,49.0,56.0,50.3,43.0,92,71,50,30.19,30.06,7,1,12,0.00
2013-7-2,73.0,57.6,43.0,52.0,43.5,30.0,93,64,22,30.16,30.05,5,1,8,0.00
2013-7-3,77.0,59.5,42.0,57.0,48.1,39.0,92,68,34,30.06,29.93,5,1,8,0.00
2013-7-4,89.0,72.5,51.0,63.0,57.7,49.0,94,64,37,29.94,29.84,4,1,10,0.00
2013-7-5,91.0,80.4,69.0,63.0,60.3,56.0,72,52,33,29.87,29.78,6,1,18,0.00
2013-7-6,91.0,77.8,65.0,74.0,65.1,60.0,95,66,43,29.88,29.80,7,1,14,0.01
2013-7-7,85.0,65.6,54.0,71.0,62.2,53.0,98,90,60,29.96,29.79,6,2,12,0.31
2013-7-8,68.0,59.3,53.0,63.0,55.8,52.0,98,89,70,29.98,29.87,5,1,10,0.00
2013-7-9,66.0,59.0,55.0,65.0,57.9,54.0,98,96,91,29.97,29.73,5,1,8,0.00
2013-7-10,78.0,68.2,58.0,62.0,55.8,51.0,92,67,40,29.97,29.79,9,2,15,0.00
2013-7-11,87.0,71.1,55.0,62.0,57.2,52.0,94,66,33,30.07,29.96,4,0,8,0.00
2013-7-12,90.0,75.6,59.0,66.0,60.6,56.0,93,63,36,29.99,29.88,5,1,14,0.00
2013-7-13,86.0,76.7,67.0,70.0,64.8,59.0,88,68,56,30.07,29.91,4,1,11,0.00
2013-7-14,86.0,74.2,67.0,69.0,65.7,63.0,94,76,54,30.18,30.06,5,1,8,0.00
2013-7-15,82.0,70.0,63.0,70.0,64.8,61.0,96,84,65,30.22,30.16,5,1,10,0.00
2013-7-16,94.0,80.4,64.0,76.0,69.6,62.0,97,73,49,30.16,30.09,5,1,13,0.03
2013-7-17,95.0,82.0,71.0,73.0,69.7,67.0,90,69,43,30.17,30.07,5,1,13,0.00
2013-7-18,96.0,82.8,68.0,76.0,70.0,66.0,96,69,43,30.07,29.63,8,2,18,0.01
2013-7-19,84.0,76.3,69.0,73.0,63.1,52.0,96,66,36,29.78,29.59,9,2,15,0.20
2013-7-20,71.0,64.3,54.0,59.0,49.7,44.0,80,60,41,29.99,29.78,6,2,11,0.00
2013-7-21,71.0,59.8,47.0,57.0,51.2,45.0,92,74,47,29.99,29.81,7,1,12,0.00
2013-7-22,86.0,69.7,55.0,72.0,59.3,51.0,96,71,47,29.81,29.57,12,2,19,0.00
2013-7-23,76.0,64.4,57.0,55.0,50.2,46.0,83,62,38,29.98,29.74,9,2,14,0.00
2013-7-24,79.0,66.1,52.0,57.0,53.3,49.0,92,66,41,30.01,29.91,4,1,12,0.00
2013-7-25,83.0,68.9,60.0,65.0,59.2,55.0,97,73,42,29.91,29.81,7,1,12,0.12
2013-7-26,61.0,55.9,50.0,59.0,53.8,44.0,97,93,80,30.01,29.83,8,2,15,0.01
2013-7-27,58.0,52.9,48.0,51.0,47.1,44.0,94,81,66,29.98,29.81,10,3,16,0.00
2013-7-28,65.0,58.1,51.0,57.0,52.7,50.0,97,83,66,29.99,29.84,7,2,12,0.00
2013-7-29,77.0,63.7,49.0,57.0,52.6,47.0,95,70,43,30.06,29.98,6,0,9,0.00
2013-7-30,76.0,65.7,56.0,63.0,59.2,53.0,94,80,61,30.08,29.99,3,0,13,0.00
2013-7-31,78.0,68.6,60.0,66.0,58.0,49.0,97,72,37,30.00,29.87,8,1,14,0.00
2013-8-1,78.0,67.5,57.0,59.0,54.1,50.0,83,64,40,29.91,29.79,8,1,13,0.00
2013-8-2,75.0,66.1,56.0,59.0,54.0,49.0,96,68,41,29.97,29.78,9,2,15,0.15
2013-8-3,75.0,63.8,54.0,58.0,53.0,49.0,91,69,46,30.15,29.98,8,1,13,0.00
2013-8-4,75.0,62.9,49.0,58.0,52.0,47.0,95,70,44,30.19,29.99,8,1,14,0.00
2013-8-5,75.0,63.4,55.0,66.0,59.7,52.0,96,88,72,29.99,29.74,6,0,8,0.18
2013-8-6,79.0,68.7,62.0,65.0,62.1,58.0,97,81,52,29.75,29.68,4,0,8,0.01
2013-8-7,74.0,66.8,56.0,62.0,53.3,46.0,91,65,37,29.97,29.69,8,2,14,0.00
2013-8-8,74.0,62.9,56.0,60.0,55.1,50.0,90,76,55,29.99,29.91,5,0,8,0.00
2013-8-9,71.0,63.7,56.0,58.0,53.0,48.0,92,70,46,30.04,29.91,8,1,15,0.00
2013-8-10,78.0,65.5,55.0,58.0,54.0,49.0,92,69,38,30.11,30.03,6,1,9,0.00
2013-8-11,80.0,66.3,56.0,62.0,56.3,52.0,93,72,45,30.04,29.95,4,0,7,0.00
2013-8-12,75.0,62.9,52.0,60.0,54.3,48.0,94,75,50,30.04,29.92,9,1,15,0.00
2013-8-13,71.0,58.3,47.0,54.0,49.3,45.0,94,74,46,30.14,30.04,6,1,10,0.00
2013-8-14,76.0,61.0,46.0,53.0,47.4,43.0,94,65,36,30.16,30.03,5,1,8,0.00
2013-8-15,79.0,66.4,53.0,60.0,52.7,47.0,87,65,34,30.06,30.01,6,1,9,0.00
2013-8-16,86.0,69.9,52.0,61.0,54.7,50.0,94,64,32,30.10,30.06,4,0,8,0.00
2013-8-17,85.0,72.2,58.0,60.0,56.6,54.0,88,61,36,30.15,30.04,5,1,12,0.00
2013-8-18,85.0,71.9,58.0,61.0,56.7,54.0,86,61,39,30.09,29.94,5,1,13,0.00
2013-8-19,89.0,75.9,67.0,71.0,63.6,57.0,83,66,50,29.96,29.85,5,1,13,0.00
2013-8-20,93.0,80.3,69.0,73.0,68.9,65.0,89,70,50,29.92,29.80,4,1,11,0.00
2013-8-21,86.0,77.5,62.0,77.0,67.1,55.0,93,73,37,29.98,29.77,5,1,11,0.12
2013-8-22,81.0,69.9,56.0,59.0,51.8,44.0,90,57,29,30.12,29.98,6,1,11,0.00
2013-8-23,82.0,64.9,49.0,63.0,55.6,47.0,94,74,51,30.14,30.03,5,1,8,0.00
2013-8-24,90.0,75.4,59.0,71.0,64.6,57.0,96,72,48,30.08,29.86,6,1,16,0.00
2013-8-25,98.0,86.6,75.0,76.0,72.5,69.0,82,64,45,29.96,29.87,7,2,21,0.02
2013-8-26,88.0,76.2,69.0,83.0,73.1,68.0,99,91,68,29.99,29.84,6,1,11,0.14
2013-8-27,83.0,74.4,69.0,73.0,70.8,68.0,99,90,67,29.90,29.79,6,1,8,0.01
2013-8-28,84.0,74.6,68.0,75.0,70.6,67.0,99,88,64,30.00,29.90,5,0,7,0.01
2013-8-29,84.0,72.2,66.0,75.0,70.4,65.0,99,88,71,30.01,29.72,21,0,38,0.01
2013-8-30,78.0,71.7,64.0,73.0,66.8,62.0,99,82,64,29.93,29.77,7,2,11,0.00
2013-8-31,88.0,71.3,58.0,70.0,64.1,57.0,98,80,53,29.90,29.65,9,0,17,0.01
2013-9-1,77.0,67.6,60.0,68.0,60.9,54.0,96,80,58,29.92,29.62,10,3,16,0.00
2013-9-2,67.0,57.9,51.0,54.0,49.8,46.0,93,75,54,30.04,29.91,8,2,15,0.00
2013-9-3,79.0,63.5,49.0,60.0,53.5,47.0,95,72,50,30.01,29.88,4,1,10,0.00
2013-9-4,69.0,63.0,53.0,61.0,54.1,49.0,93,73,58,30.15,29.90,7,2,12,0.00
2013-9-5,75.0,60.4,47.0,60.0,53.4,46.0,97,80,53,30.24,30.09,5,1,8,0.00
2013-9-6,87.0,71.4,53.0,72.0,64.1,51.0,95,79,58,30.09,29.82,4,0,13,0.00
2013-9-7,79.0,68.2,54.0,70.0,62.6,51.0,94,83,69,30.08,29.82,8,2,14,0.00
2013-9-8,71.0,60.7,48.0,62.0,55.5,47.0,97,84,60,30.11,29.88,5,1,9,0.00
2013-9-9,75.0,66.2,62.0,70.0,64.1,59.0,98,93,83,29.89,29.62,6,0,11,0.00
2013-9-10,80.0,70.9,65.0,70.0,66.7,63.0,98,88,66,29.88,29.67,4,0,10,0.00
2013-9-11,77.0,68.1,58.0,65.0,59.6,51.0,97,77,43,30.00,29.88,10,1,18,0.00
2013-9-12,64.0,58.3,51.0,57.0,50.3,43.0,95,76,52,30.18,29.98,9,2,15,0.00
2013-9-13,68.0,55.3,43.0,50.0,45.9,41.0,95,73,42,30.22,30.04,5,0,7,0.00
2013-9-14,73.0,59.0,44.0,57.0,50.1,42.0,94,74,51,30.04,29.86,4,1,10,0.00
2013-9-15,58.0,52.7,40.0,56.0,49.0,38.0,96,88,64,30.28,29.91,8,1,18,0.03
2013-9-16,64.0,49.9,37.0,48.0,42.4,35.0,96,78,49,30.38,30.23,4,0,7,0.00
2013-9-17,74.0,56.2,40.0,53.0,45.5,38.0,96,71,40,30.24,29.94,4,0,10,0.00
2013-9-18,68.0,63.7,59.0,65.0,60.5,52.0,95,89,74,29.94,29.73,4,0,8,0.00
2013-9-19,78.0,67.4,60.0,72.0,65.1,59.0,98,93,80,29.73,29.58,8,0,10,0.09
2013-9-20,68.0,60.7,53.0,67.0,54.5,46.0,96,81,61,29.80,29.63,9,2,15,0.00
2013-9-21,59.0,51.1,41.0,48.0,41.9,36.0,92,72,50,29.95,29.79,9,3,16,0.00
2013-9-22,66.0,49.1,35.0,49.0,42.2,33.0,95,79,46,30.03,29.92,7,1,12,0.00
2013-9-23,76.0,57.6,45.0,55.0,48.3,43.0,93,74,44,29.98,29.91,4,0,11,0.00
2013-9-24,75.0,56.9,43.0,58.0,50.4,41.0,97,81,49,29.98,29.90,5,1,8,0.00
2013-9-25,70.0,55.7,43.0,58.0,51.6,42.0,97,87,61,29.97,29.90,6,0,9,0.00
2013-9-26,72.0,58.4,45.0,59.0,53.4,44.0,97,85,54,29.99,29.91,5,1,9,0.00
2013-9-27,78.0,69.1,56.0,63.0,56.9,50.0,89,66,48,29.96,29.82,4,1,13,0.00
2013-9-28,79.0,64.3,52.0,64.0,54.2,47.0,92,71,47,29.84,29.55,11,2,22,0.03
2013-9-29,74.0,61.3,45.0,51.0,46.3,41.0,92,62,33,29.89,29.77,4,1,11,0.00
2013-9-30,76.0,65.4,58.0,54.0,49.7,46.0,69,58,44,29.77,29.57,6,1,17,0.00
2013-10-1,76.0,66.0,56.0,56.0,44.3,32.0,73,48,22,29.88,29.53,6,1,16,0.00
2013-10-2,78.0,60.3,47.0,53.0,41.7,34.0,94,54,22,30.00,29.88,5,1,8,0.07
2013-10-3,59.0,55.3,53.0,55.0,52.6,50.0,96,91,75,29.97,29.89,6,2,14,0.17
2013-10-4,57.0,54.8,51.0,53.0,51.2,47.0,94,88,78,30.06,29.97,9,4,20,0.00
2013-10-5,54.0,52.5,51.0,53.0,51.0,49.0,97,95,88,30.03,29.69,9,4,19,0.52
2013-10-6,54.0,50.9,44.0,53.0,49.1,42.0,97,94,87,29.73,29.61,7,1,11,0.02
2013-10-7,61.0,49.4,41.0,46.0,42.4,39.0,96,79,49,29.94,29.70,7,1,10,0.00
2013-10-8,77.0,57.7,37.0,49.0,42.9,35.0,97,64,33,29.95,29.77,6,1,15,0.00
2013-10-9,78.0,64.7,52.0,55.0,49.9,46.0,88,60,42,30.04,29.87,4,1,11,0.00
2013-10-10,77.0,57.5,44.0,53.0,48.0,42.0,96,75,33,30.04,29.92,3,0,9,0.00
2013-10-11,78.0,61.4,44.0,58.0,51.3,42.0,97,73,43,29.95,29.68,7,2,21,0.00
2013-10-12,66.0,58.8,50.0,56.0,47.4,40.0,85,66,51,30.00,29.64,7,2,15,0.00
2013-10-13,58.0,49.2,37.0,46.0,37.5,28.0,87,67,34,30.35,30.00,6,1,11,0.00
2013-10-14,54.0,44.6,34.0,44.0,38.1,31.0,93,79,58,30.38,30.10,6,1,13,0.00
2013-10-15,51.0,49.0,47.0,50.0,46.5,39.0,98,92,65,30.10,29.69,11,4,20,0.85
2013-10-16,53.0,45.2,36.0,46.0,39.7,33.0,97,82,56,29.86,29.75,8,2,15,0.00
2013-10-17,53.0,44.4,33.0,46.0,39.9,31.0,95,85,64,29.82,29.72,4,0,7,0.16
2013-10-18,51.0,44.5,35.0,46.0,37.2,25.0,95,78,39,29.86,29.74,9,2,15,0.06
2013-10-19,45.0,39.9,35.0,40.0,37.1,33.0,94,90,77,29.77,29.61,5,0,9,0.08
2013-10-20,46.0,36.9,30.0,39.0,34.3,28.0,96,91,68,29.77,29.67,3,0,7,0.11
2013-10-21,38.0,35.0,32.0,36.0,30.8,26.0,95,85,68,29.78,29.69,6,2,14,0.03
2013-10-22,39.0,36.7,32.0,33.0,29.3,26.0,86,75,61,29.95,29.78,8,2,12,0.00
2013-10-23,40.0,35.5,32.0,31.0,26.1,21.0,87,69,49,29.96,29.88,8,2,14,0.00
2013-10-24,41.0,37.4,33.0,32.0,29.2,26.0,87,73,55,30.18,29.96,7,1,15,0.00
2013-10-25,52.0,40.3,28.0,39.0,30.8,25.0,92,70,47,30.19,29.59,8,2,20,0.00
2013-10-26,51.0,43.3,40.0,37.0,32.0,28.0,81,65,53,29.99,29.62,13,4,19,0.00
2013-10-27,50.0,41.3,35.0,35.0,30.3,24.0,79,65,49,30.20,29.73,10,3,18,0.00
2013-10-28,39.0,33.8,25.0,32.0,25.8,20.0,90,73,52,30.46,30.20,9,3,17,0.03
2013-10-29,38.0,31.3,23.0,34.0,27.5,20.0,94,87,69,30.43,30.12,3,0,5,0.00
2013-10-30,44.0,40.7,36.0,43.0,39.0,34.0,97,94,89,30.12,29.66,3,0,5,0.01
2013-10-31,47.0,45.6,44.0,46.0,44.6,43.0,98,97,96,29.65,29.27,4,1,7,0.00
2013-11-1,45.0,42.8,40.0,44.0,39.8,33.0,98,89,74,29.75,29.27,7,2,10,0.03
2013-11-2,44.0,38.3,29.0,37.0,32.7,26.0,92,81,64,30.08,29.75,6,2,11,0.00
2013-11-3,52.0,38.3,25.0,38.0,30.0,22.0,94,74,52,30.14,29.98,8,1,17,0.00
2013-11-4,46.0,44.2,37.0,44.0,37.8,31.0,93,78,63,30.04,29.81,7,2,20,0.08
2013-11-5,47.0,38.7,32.0,34.0,30.3,26.0,93,73,47,30.16,29.98,5,1,13,0.05
2013-11-6,39.0,34.8,33.0,33.0,26.3,20.0,93,72,55,30.06,29.91,8,3,14,0.04
2013-11-7,39.0,33.0,28.0,27.0,21.9,17.0,76,64,53,30.12,30.06,5,1,10,0.00
2013-11-8,42.0,33.4,22.0,34.0,25.3,17.0,86,73,56,30.13,29.61,6,1,10,0.01
2013-11-9,40.0,38.1,37.0,36.0,33.9,31.0,94,85,76,29.99,29.54,7,2,19,0.04
2013-11-10,45.0,39.1,35.0,32.0,28.7,25.0,89,67,46,30.20,29.99,10,3,17,0.00
2013-11-11,34.0,25.0,21.0,31.0,12.4,8.6,92,59,48,30.58,30.03,14,6,22,0.00
2013-11-12,31.0,23.3,16.0,11.0,7.6,3.6,70,52,33,30.63,30.33,8,3,18,0.00
2013-11-13,52.0,36.7,23.0,32.0,21.6,8.4,74,55,39,30.33,29.72,11,5,22,0.00
2013-11-14,49.0,41.3,37.0,35.0,32.6,31.0,81,71,56,29.75,29.68,5,1,9,0.00
2013-11-15,55.0,41.9,35.0,38.0,34.1,31.0,87,75,48,29.78,29.65,7,1,12,0.00
2013-11-16,49.0,44.4,40.0,43.0,38.8,34.0,96,81,69,29.65,29.25,7,2,16,0.24
2013-11-17,46.0,42.2,35.0,44.0,38.0,25.0,97,85,68,29.55,29.22,10,3,23,0.00
2013-11-18,34.0,30.7,28.0,24.0,19.5,17.0,67,63,58,30.21,29.56,12,4,26,0.00
2013-11-19,44.0,33.5,21.0,22.0,19.3,16.0,83,58,37,30.25,29.92,8,2,18,0.00
2013-11-20,47.0,42.1,37.0,32.0,24.5,17.0,82,52,35,30.02,29.88,9,4,19,0.00
2013-11-21,39.0,33.6,26.0,34.0,26.5,15.0,85,75,63,30.43,30.01,11,4,17,0.00
2013-11-22,35.0,24.9,16.0,17.0,12.0,1.8,72,59,27,30.49,30.30,12,4,19,0.00
2013-11-23,17.0,13.4,8.0,6.0,0.3,-5.5,67,56,41,30.70,30.49,14,4,22,0.00
2013-11-24,31.0,18.2,6.0,15.0,3.8,-3.2,70,54,39,30.62,29.78,13,5,24,0.00
2013-11-25,40.0,34.2,30.0,28.0,22.2,15.0,77,61,52,29.93,29.70,12,5,24,0.00
2013-11-26,29.0,19.3,16.0,20.0,8.4,0.3,83,63,42,30.29,29.93,12,5,22,0.00
2013-11-27,25.0,22.1,20.0,18.0,14.5,11.0,84,72,58,30.26,30.08,10,2,16,0.01
2013-11-28,29.0,23.2,20.0,19.0,16.5,14.0,85,76,56,30.43,30.07,5,1,10,0.00
2013-11-29,29.0,21.8,11.0,19.0,13.9,6.1,84,71,58,30.48,30.14,8,1,15,0.00
2013-11-30,37.0,30.0,28.0,25.0,20.8,19.0,74,68,62,30.13,29.98,7,1,12,0.00
2013-12-1,35.0,31.9,30.0,26.0,23.0,21.0,71,70,67,30.01,29.92,4,1,6,0.00
2013-12-2,35.0,31.4,28.0,31.0,26.1,21.0,94,81,69,29.92,29.72,4,1,6,0.02
2013-12-3,32.0,30.4,28.0,30.0,27.4,24.0,94,89,80,29.89,29.72,9,2,16,0.20
2013-12-4,32.0,30.8,28.0,31.0,28.8,25.0,95,92,85,29.88,29.31,9,3,15,0.43
2013-12-5,31.0,13.5,3.0,30.0,8.5,-3.7,95,80,73,30.14,29.36,8,4,17,0.01
2013-12-6,5.0,2.0,0.0,-2.3,-5.1,-7.2,73,71,70,30.47,30.14,8,4,14,0.00
2013-12-7,0.0,-5.6,-12.0,-7.2,-14.4,-20.0,71,65,64,30.60,30.47,6,2,12,0.00
2013-12-8,8.0,-1.3,-12.0,3.1,-8.3,-21.0,80,71,65,30.57,30.03,4,0,8,0.02
2013-12-9,9.0,1.7,-7.0,4.1,-5.8,-15.0,80,70,63,30.04,29.88,10,2,17,0.01
2013-12-10,8.0,0.4,-6.0,-1.3,-7.5,-14.0,72,68,61,30.19,29.85,7,2,13,0.00
2013-12-11,1.0,-3.7,-11.0,-5.9,-13.2,-20.0,73,63,54,30.46,30.19,7,3,14,0.00
2013-12-12,11.0,4.9,-5.0,3.5,-3.6,-14.0,74,67,59,30.31,30.17,7,2,11,0.00
2013-12-13,11.0,8.3,5.0,6.3,1.5,-3.5,81,73,63,30.40,30.20,7,2,12,0.02
2013-12-14,14.0,9.3,4.0,8.0,3.1,-2.7,80,75,72,30.38,29.97,6,0,11,0.01
2013-12-15,9.0,-0.2,-9.0,1.8,-9.5,-18.0,73,64,54,30.15,29.99,8,2,16,0.00
2013-12-16,13.0,3.9,-10.0,8.0,-3.3,-18.0,80,72,62,30.14,29.83,7,2,12,0.07
2013-12-17,26.0,16.9,8.0,19.0,9.2,-3.9,83,72,60,30.07,29.78,10,3,16,0.00
2013-12-18,19.0,7.5,0.0,8.1,-1.2,-9.0,79,67,59,30.06,29.68,6,1,10,0.00
2013-12-19,18.0,15.7,7.0,13.0,9.9,1.3,85,78,69,30.17,29.81,8,2,13,0.14
2013-12-20,21.0,14.1,4.0,13.0,8.6,-2.7,84,78,69,30.13,29.89,3,0,5,0.02
2013-12-21,24.0,14.8,3.0,15.0,9.0,-3.4,84,77,64,30.05,29.88,2,0,3,0.01
2013-12-22,23.0,21.2,14.0,21.0,18.1,9.5,90,88,82,30.18,29.98,10,5,18,0.16
2013-12-23,19.0,14.1,9.0,16.0,10.1,4.4,87,84,81,30.46,30.18,7,2,11,0.03
2013-12-24,16.0,4.3,-4.0,12.0,-1.2,-11.0,83,77,72,30.43,30.27,5,1,11,0.00
2013-12-25,18.0,14.4,11.0,14.0,9.1,3.5,83,79,70,30.09,30.02,5,1,11,0.00
2013-12-26,15.0,8.1,-4.0,9.1,1.7,-11.0,78,74,68,30.21,30.09,4,0,5,0.00
2013-12-27,33.0,19.5,-6.0,30.0,14.4,-13.0,91,80,70,30.19,29.78,9,2,18,0.00
2013-12-28,32.0,27.0,16.0,29.0,23.5,12.0,91,86,79,30.03,29.78,11,3,20,0.00
2013-12-29,16.0,-2.2,-12.0,12.0,-11.5,-22.0,84,64,57,30.27,30.02,10,4,15,0.00
2013-12-30,0.0,-7.9,-15.0,-14.0,-19.2,-26.0,65,57,45,30.29,30.18,5,2,9,0.00
2013-12-31,-2.0,-8.3,-13.0,-14.0,-19.0,-24.0,65,59,51,30.45,30.16,7,2,13,0.00
2014-1-1,3.0,-5.2,-14.0,-7.1,-14.5,-23.0,69,63,60,30.52,30.43,4,0,8,0.00
2014-1-2,7.0,-7.2,-16.0,-4.5,-16.5,-25.0,72,63,55,30.47,30.37,3,0,5,0.00